Reading Regional Carl A Spaatz Field Reading US
ICAO: KRDG
IATA: RDG
Category: Medium
Scheduled Services: Yes

Elevation: 344 ft
TransAlt. 18000 ft.

Airport Communications:
APP/DEP:125.15
ATIS:127.1
CTAF:119.9
GND:121.9
TWR:119.9
UNICOM:122.95

KRDG Zoom In..

Runways:

(A) RW 13 length 6350 ft width 150 ft
ILS 110.55 / hdg 133

(B) RW 18 length 5151 ft width 150 ft
---- / hdg 184

(C) RW 31 length 6350 ft width 150 ft
---- / hdg 313

(D) RW 36 length 5151 ft width 150 ft
ILS 109.50 / hdg 4

Location; KRDG
Day. 31 / Time. 12.54 Zulu
* Altimeter: 30.13
* Temperature: 16° c. 60.8°f.
* Wind from: VRB° Speed 05 kn with Gusts up to 14 kn.
Dewpoint: 05° c.
Visibility: 10 Statute Miles.
Clouds: Clear (automated report).

KRDG 311254Z VRB05G14KT 10SM CLR 16/05 A3013 RMK AO2 SLP207 T01560050


Wind From VRB°
Speed 05 kn.

 
 
jpsmedia worldairports.se 2020   terms of use